sensor_id;sensor_type;location;lat;lon;timestamp;P1;durP1;ratioP1;P2;durP2;ratioP2
29358;SDS011;16347;53.232;6.556;2023-06-19T00:01:51;6.35;;;5.20;;
29358;SDS011;16347;53.232;6.556;2023-06-19T00:04:19;9.13;;;6.65;;
29358;SDS011;16347;53.232;6.556;2023-06-19T00:06:49;6.07;;;5.25;;
29358;SDS011;16347;53.232;6.556;2023-06-19T00:09:17;7.15;;;5.82;;
29358;SDS011;16347;53.232;6.556;2023-06-19T00:11:46;12.38;;;6.32;;
29358;SDS011;16347;53.232;6.556;2023-06-19T00:14:14;6.38;;;5.60;;
29358;SDS011;16347;53.232;6.556;2023-06-19T00:16:41;7.47;;;5.18;;
29358;SDS011;16347;53.232;6.556;2023-06-19T00:19:10;8.02;;;5.88;;
29358;SDS011;16347;53.232;6.556;2023-06-19T00:21:39;10.15;;;5.20;;
29358;SDS011;16347;53.232;6.556;2023-06-19T00:24:10;5.97;;;5.07;;
29358;SDS011;16347;53.232;6.556;2023-06-19T00:26:38;7.15;;;5.40;;
29358;SDS011;16347;53.232;6.556;2023-06-19T00:29:07;5.90;;;4.93;;
29358;SDS011;16347;53.232;6.556;2023-06-19T00:31:35;7.07;;;5.32;;
29358;SDS011;16347;53.232;6.556;2023-06-19T00:34:03;9.93;;;5.80;;
29358;SDS011;16347;53.232;6.556;2023-06-19T00:36:32;11.10;;;5.57;;
29358;SDS011;16347;53.232;6.556;2023-06-19T00:39:07;8.52;;;5.30;;
29358;SDS011;16347;53.232;6.556;2023-06-19T00:41:36;6.88;;;5.90;;
29358;SDS011;16347;53.232;6.556;2023-06-19T00:44:05;5.88;;;4.90;;
29358;SDS011;16347;53.232;6.556;2023-06-19T00:46:34;8.48;;;5.97;;
29358;SDS011;16347;53.232;6.556;2023-06-19T00:49:05;6.88;;;5.10;;
29358;SDS011;16347;53.232;6.556;2023-06-19T00:51:33;6.90;;;5.35;;
29358;SDS011;16347;53.232;6.556;2023-06-19T00:54:01;7.70;;;5.68;;
29358;SDS011;16347;53.232;6.556;2023-06-19T00:56:29;15.60;;;5.35;;
29358;SDS011;16347;53.232;6.556;2023-06-19T00:58:59;6.85;;;5.10;;
29358;SDS011;16347;53.232;6.556;2023-06-19T01:01:29;7.95;;;5.25;;
29358;SDS011;16347;53.232;6.556;2023-06-19T01:03:58;5.57;;;4.88;;
29358;SDS011;16347;53.232;6.556;2023-06-19T01:06:27;7.18;;;4.85;;
29358;SDS011;16347;53.232;6.556;2023-06-19T01:09:05;8.07;;;5.53;;
29358;SDS011;16347;53.232;6.556;2023-06-19T01:11:39;9.07;;;5.45;;
29358;SDS011;16347;53.232;6.556;2023-06-19T01:14:14;7.13;;;5.32;;
29358;SDS011;16347;53.232;6.556;2023-06-19T01:16:46;7.63;;;5.63;;
29358;SDS011;16347;53.232;6.556;2023-06-19T01:19:15;6.78;;;5.22;;
29358;SDS011;16347;53.232;6.556;2023-06-19T01:21:47;6.55;;;5.10;;
29358;SDS011;16347;53.232;6.556;2023-06-19T01:24:18;10.05;;;5.18;;
29358;SDS011;16347;53.232;6.556;2023-06-19T01:26:46;6.97;;;5.40;;
29358;SDS011;16347;53.232;6.556;2023-06-19T01:29:14;6.95;;;5.68;;
29358;SDS011;16347;53.232;6.556;2023-06-19T01:31:45;7.30;;;5.45;;
29358;SDS011;16347;53.232;6.556;2023-06-19T01:34:22;7.82;;;6.00;;
29358;SDS011;16347;53.232;6.556;2023-06-19T01:36:54;7.63;;;5.40;;
29358;SDS011;16347;53.232;6.556;2023-06-19T01:39:25;7.28;;;5.95;;
29358;SDS011;16347;53.232;6.556;2023-06-19T01:41:53;9.05;;;5.30;;
29358;SDS011;16347;53.232;6.556;2023-06-19T01:44:22;7.93;;;5.57;;
29358;SDS011;16347;53.232;6.556;2023-06-19T01:46:51;9.10;;;5.97;;
29358;SDS011;16347;53.232;6.556;2023-06-19T01:49:19;9.98;;;5.97;;
29358;SDS011;16347;53.232;6.556;2023-06-19T01:51:47;7.47;;;5.30;;
29358;SDS011;16347;53.232;6.556;2023-06-19T01:54:16;8.23;;;5.47;;
29358;SDS011;16347;53.232;6.556;2023-06-19T01:56:45;7.38;;;5.10;;
29358;SDS011;16347;53.232;6.556;2023-06-19T01:59:13;6.30;;;5.30;;
29358;SDS011;16347;53.232;6.556;2023-06-19T02:01:42;7.97;;;5.90;;
29358;SDS011;16347;53.232;6.556;2023-06-19T02:04:10;7.78;;;6.35;;
29358;SDS011;16347;53.232;6.556;2023-06-19T02:06:38;8.95;;;5.93;;
29358;SDS011;16347;53.232;6.556;2023-06-19T02:09:06;10.52;;;6.13;;
29358;SDS011;16347;53.232;6.556;2023-06-19T02:11:37;8.30;;;5.55;;
29358;SDS011;16347;53.232;6.556;2023-06-19T02:14:07;8.73;;;5.88;;
29358;SDS011;16347;53.232;6.556;2023-06-19T02:16:36;6.65;;;5.57;;
29358;SDS011;16347;53.232;6.556;2023-06-19T02:19:06;7.82;;;5.63;;
29358;SDS011;16347;53.232;6.556;2023-06-19T02:21:37;8.70;;;5.25;;
29358;SDS011;16347;53.232;6.556;2023-06-19T02:24:05;6.90;;;6.07;;
29358;SDS011;16347;53.232;6.556;2023-06-19T02:26:33;7.65;;;5.55;;
29358;SDS011;16347;53.232;6.556;2023-06-19T02:29:01;7.53;;;5.25;;
29358;SDS011;16347;53.232;6.556;2023-06-19T02:31:30;17.55;;;6.55;;
29358;SDS011;16347;53.232;6.556;2023-06-19T02:33:59;12.10;;;6.20;;
29358;SDS011;16347;53.232;6.556;2023-06-19T02:36:28;9.57;;;5.63;;
29358;SDS011;16347;53.232;6.556;2023-06-19T02:38:56;12.13;;;6.45;;
29358;SDS011;16347;53.232;6.556;2023-06-19T02:41:24;8.55;;;6.38;;
29358;SDS011;16347;53.232;6.556;2023-06-19T02:43:53;9.82;;;6.07;;
29358;SDS011;16347;53.232;6.556;2023-06-19T02:46:22;10.60;;;6.95;;
29358;SDS011;16347;53.232;6.556;2023-06-19T02:48:52;9.88;;;7.03;;
29358;SDS011;16347;53.232;6.556;2023-06-19T02:51:21;9.90;;;6.05;;
29358;SDS011;16347;53.232;6.556;2023-06-19T02:53:49;9.40;;;6.75;;
29358;SDS011;16347;53.232;6.556;2023-06-19T02:56:17;13.43;;;6.35;;
29358;SDS011;16347;53.232;6.556;2023-06-19T02:58:45;10.52;;;6.32;;
29358;SDS011;16347;53.232;6.556;2023-06-19T03:01:13;11.18;;;6.65;;
29358;SDS011;16347;53.232;6.556;2023-06-19T03:03:43;13.10;;;6.32;;
29358;SDS011;16347;53.232;6.556;2023-06-19T03:06:15;11.38;;;6.70;;
29358;SDS011;16347;53.232;6.556;2023-06-19T03:08:44;8.95;;;6.82;;
29358;SDS011;16347;53.232;6.556;2023-06-19T03:11:13;9.93;;;7.10;;
29358;SDS011;16347;53.232;6.556;2023-06-19T03:13:44;12.00;;;6.40;;
29358;SDS011;16347;53.232;6.556;2023-06-19T03:16:14;10.45;;;6.15;;
29358;SDS011;16347;53.232;6.556;2023-06-19T03:18:42;8.52;;;6.75;;
29358;SDS011;16347;53.232;6.556;2023-06-19T03:21:11;9.50;;;6.93;;
29358;SDS011;16347;53.232;6.556;2023-06-19T03:23:42;8.50;;;6.30;;
29358;SDS011;16347;53.232;6.556;2023-06-19T03:26:10;9.32;;;5.93;;
29358;SDS011;16347;53.232;6.556;2023-06-19T03:28:40;9.63;;;6.70;;
29358;SDS011;16347;53.232;6.556;2023-06-19T03:31:09;12.10;;;7.05;;
29358;SDS011;16347;53.232;6.556;2023-06-19T03:33:37;13.75;;;6.50;;
29358;SDS011;16347;53.232;6.556;2023-06-19T03:36:06;9.57;;;6.63;;
29358;SDS011;16347;53.232;6.556;2023-06-19T03:38:48;9.75;;;6.75;;
29358;SDS011;16347;53.232;6.556;2023-06-19T03:41:22;12.90;;;7.05;;
29358;SDS011;16347;53.232;6.556;2023-06-19T03:43:52;8.95;;;6.13;;
29358;SDS011;16347;53.232;6.556;2023-06-19T03:46:20;12.35;;;7.13;;
29358;SDS011;16347;53.232;6.556;2023-06-19T03:48:48;9.90;;;6.57;;
29358;SDS011;16347;53.232;6.556;2023-06-19T03:51:17;9.57;;;6.53;;
29358;SDS011;16347;53.232;6.556;2023-06-19T03:53:45;11.35;;;6.47;;
29358;SDS011;16347;53.232;6.556;2023-06-19T03:56:17;9.82;;;6.30;;
29358;SDS011;16347;53.232;6.556;2023-06-19T03:58:45;10.25;;;6.43;;
29358;SDS011;16347;53.232;6.556;2023-06-19T04:01:13;10.18;;;6.03;;
29358;SDS011;16347;53.232;6.556;2023-06-19T04:03:42;11.05;;;6.32;;
29358;SDS011;16347;53.232;6.556;2023-06-19T04:06:10;11.23;;;7.22;;
29358;SDS011;16347;53.232;6.556;2023-06-19T04:08:38;9.80;;;6.53;;
29358;SDS011;16347;53.232;6.556;2023-06-19T04:11:10;10.05;;;6.32;;
29358;SDS011;16347;53.232;6.556;2023-06-19T04:13:40;11.55;;;6.78;;
29358;SDS011;16347;53.232;6.556;2023-06-19T04:16:08;16.50;;;6.45;;
29358;SDS011;16347;53.232;6.556;2023-06-19T04:18:36;8.13;;;6.53;;
29358;SDS011;16347;53.232;6.556;2023-06-19T04:21:04;8.68;;;5.68;;
29358;SDS011;16347;53.232;6.556;2023-06-19T04:23:32;8.00;;;5.97;;
29358;SDS011;16347;53.232;6.556;2023-06-19T04:26:00;9.55;;;6.30;;
29358;SDS011;16347;53.232;6.556;2023-06-19T04:28:28;11.25;;;5.97;;
29358;SDS011;16347;53.232;6.556;2023-06-19T04:30:57;8.15;;;6.47;;
29358;SDS011;16347;53.232;6.556;2023-06-19T04:33:27;11.23;;;6.60;;
29358;SDS011;16347;53.232;6.556;2023-06-19T04:35:57;9.57;;;6.22;;
29358;SDS011;16347;53.232;6.556;2023-06-19T04:38:25;11.02;;;6.70;;
29358;SDS011;16347;53.232;6.556;2023-06-19T04:40:53;10.43;;;5.68;;
29358;SDS011;16347;53.232;6.556;2023-06-19T04:43:22;8.43;;;6.55;;
29358;SDS011;16347;53.232;6.556;2023-06-19T04:45:52;8.05;;;6.47;;
29358;SDS011;16347;53.232;6.556;2023-06-19T04:48:21;10.32;;;5.95;;
29358;SDS011;16347;53.232;6.556;2023-06-19T04:50:52;8.93;;;4.87;;
29358;SDS011;16347;53.232;6.556;2023-06-19T04:53:22;12.57;;;5.10;;
29358;SDS011;16347;53.232;6.556;2023-06-19T04:55:51;14.70;;;5.38;;
29358;SDS011;16347;53.232;6.556;2023-06-19T04:58:22;5.88;;;4.35;;
29358;SDS011;16347;53.232;6.556;2023-06-19T05:00:50;8.05;;;4.40;;
29358;SDS011;16347;53.232;6.556;2023-06-19T05:03:22;8.77;;;5.10;;
29358;SDS011;16347;53.232;6.556;2023-06-19T05:05:50;8.10;;;4.63;;
29358;SDS011;16347;53.232;6.556;2023-06-19T05:08:19;8.73;;;4.43;;
29358;SDS011;16347;53.232;6.556;2023-06-19T05:10:47;5.68;;;4.40;;
29358;SDS011;16347;53.232;6.556;2023-06-19T05:13:16;7.78;;;4.70;;
29358;SDS011;16347;53.232;6.556;2023-06-19T05:15:45;18.95;;;5.07;;
29358;SDS011;16347;53.232;6.556;2023-06-19T05:18:13;7.28;;;5.05;;
29358;SDS011;16347;53.232;6.556;2023-06-19T05:20:43;6.63;;;4.85;;
29358;SDS011;16347;53.232;6.556;2023-06-19T05:23:11;10.57;;;5.13;;
29358;SDS011;16347;53.232;6.556;2023-06-19T05:25:39;8.02;;;4.78;;
29358;SDS011;16347;53.232;6.556;2023-06-19T05:28:10;5.97;;;4.13;;
29358;SDS011;16347;53.232;6.556;2023-06-19T05:30:38;8.15;;;4.47;;
29358;SDS011;16347;53.232;6.556;2023-06-19T05:33:06;6.93;;;4.85;;
29358;SDS011;16347;53.232;6.556;2023-06-19T05:35:36;7.10;;;4.88;;
29358;SDS011;16347;53.232;6.556;2023-06-19T05:38:05;12.07;;;4.80;;
29358;SDS011;16347;53.232;6.556;2023-06-19T05:40:33;14.38;;;5.50;;
29358;SDS011;16347;53.232;6.556;2023-06-19T05:43:02;13.15;;;5.15;;
29358;SDS011;16347;53.232;6.556;2023-06-19T05:45:30;7.88;;;5.00;;
29358;SDS011;16347;53.232;6.556;2023-06-19T05:47:58;9.23;;;5.65;;
29358;SDS011;16347;53.232;6.556;2023-06-19T05:50:26;11.45;;;5.88;;
29358;SDS011;16347;53.232;6.556;2023-06-19T05:52:55;9.30;;;5.47;;
29358;SDS011;16347;53.232;6.556;2023-06-19T05:55:26;12.43;;;5.70;;
29358;SDS011;16347;53.232;6.556;2023-06-19T05:57:55;9.60;;;4.82;;
29358;SDS011;16347;53.232;6.556;2023-06-19T06:00:25;72.35;;;8.15;;
29358;SDS011;16347;53.232;6.556;2023-06-19T06:02:54;12.63;;;6.50;;
29358;SDS011;16347;53.232;6.556;2023-06-19T06:05:22;12.50;;;6.57;;
29358;SDS011;16347;53.232;6.556;2023-06-19T06:07:51;13.43;;;6.10;;
29358;SDS011;16347;53.232;6.556;2023-06-19T06:10:20;30.38;;;7.60;;
29358;SDS011;16347;53.232;6.556;2023-06-19T06:12:53;34.58;;;9.63;;
29358;SDS011;16347;53.232;6.556;2023-06-19T06:15:21;11.55;;;6.57;;
29358;SDS011;16347;53.232;6.556;2023-06-19T06:17:52;15.07;;;6.38;;
29358;SDS011;16347;53.232;6.556;2023-06-19T06:20:20;12.50;;;7.32;;
29358;SDS011;16347;53.232;6.556;2023-06-19T06:22:49;11.10;;;7.30;;
29358;SDS011;16347;53.232;6.556;2023-06-19T06:25:17;13.18;;;7.70;;
29358;SDS011;16347;53.232;6.556;2023-06-19T06:27:45;10.23;;;7.38;;
29358;SDS011;16347;53.232;6.556;2023-06-19T06:30:15;19.02;;;8.88;;
29358;SDS011;16347;53.232;6.556;2023-06-19T06:32:45;15.13;;;8.00;;
29358;SDS011;16347;53.232;6.556;2023-06-19T06:35:14;11.73;;;7.35;;
29358;SDS011;16347;53.232;6.556;2023-06-19T06:37:43;12.43;;;7.60;;
29358;SDS011;16347;53.232;6.556;2023-06-19T06:40:13;11.57;;;7.25;;
29358;SDS011;16347;53.232;6.556;2023-06-19T06:42:41;14.50;;;7.50;;
29358;SDS011;16347;53.232;6.556;2023-06-19T06:45:09;12.48;;;7.68;;
29358;SDS011;16347;53.232;6.556;2023-06-19T06:47:39;14.57;;;7.43;;
29358;SDS011;16347;53.232;6.556;2023-06-19T06:50:08;16.65;;;7.50;;
29358;SDS011;16347;53.232;6.556;2023-06-19T06:52:37;14.57;;;7.18;;
29358;SDS011;16347;53.232;6.556;2023-06-19T06:55:07;9.90;;;6.70;;
29358;SDS011;16347;53.232;6.556;2023-06-19T06:57:36;10.75;;;6.65;;
29358;SDS011;16347;53.232;6.556;2023-06-19T07:00:05;7.60;;;6.18;;
29358;SDS011;16347;53.232;6.556;2023-06-19T07:02:37;8.00;;;6.47;;
29358;SDS011;16347;53.232;6.556;2023-06-19T07:05:09;15.95;;;6.63;;
29358;SDS011;16347;53.232;6.556;2023-06-19T07:07:38;10.65;;;8.30;;
29358;SDS011;16347;53.232;6.556;2023-06-19T07:10:07;22.92;;;10.77;;
29358;SDS011;16347;53.232;6.556;2023-06-19T07:12:43;13.10;;;9.73;;
29358;SDS011;16347;53.232;6.556;2023-06-19T07:15:12;15.88;;;9.50;;
29358;SDS011;16347;53.232;6.556;2023-06-19T07:17:40;12.13;;;9.05;;
29358;SDS011;16347;53.232;6.556;2023-06-19T07:20:10;20.50;;;10.88;;
29358;SDS011;16347;53.232;6.556;2023-06-19T07:22:39;14.43;;;10.35;;
29358;SDS011;16347;53.232;6.556;2023-06-19T07:25:09;14.60;;;10.80;;
29358;SDS011;16347;53.232;6.556;2023-06-19T07:27:39;13.95;;;10.25;;
29358;SDS011;16347;53.232;6.556;2023-06-19T07:30:08;15.23;;;10.80;;
29358;SDS011;16347;53.232;6.556;2023-06-19T07:32:41;17.88;;;12.20;;
29358;SDS011;16347;53.232;6.556;2023-06-19T07:35:10;21.33;;;13.50;;
29358;SDS011;16347;53.232;6.556;2023-06-19T07:37:39;21.45;;;13.55;;
29358;SDS011;16347;53.232;6.556;2023-06-19T07:40:07;25.33;;;15.98;;
29358;SDS011;16347;53.232;6.556;2023-06-19T07:42:36;28.50;;;15.07;;
29358;SDS011;16347;53.232;6.556;2023-06-19T07:45:08;31.67;;;17.75;;
29358;SDS011;16347;53.232;6.556;2023-06-19T07:47:37;25.55;;;17.00;;
29358;SDS011;16347;53.232;6.556;2023-06-19T07:50:06;27.15;;;17.48;;
29358;SDS011;16347;53.232;6.556;2023-06-19T07:52:36;24.55;;;16.40;;
29358;SDS011;16347;53.232;6.556;2023-06-19T07:55:05;38.08;;;19.02;;
29358;SDS011;16347;53.232;6.556;2023-06-19T07:57:39;31.30;;;18.17;;
29358;SDS011;16347;53.232;6.556;2023-06-19T08:00:07;37.40;;;18.50;;
29358;SDS011;16347;53.232;6.556;2023-06-19T08:02:38;26.75;;;17.13;;
29358;SDS011;16347;53.232;6.556;2023-06-19T08:05:07;26.60;;;16.98;;
29358;SDS011;16347;53.232;6.556;2023-06-19T08:07:38;27.77;;;16.42;;
29358;SDS011;16347;53.232;6.556;2023-06-19T08:10:07;30.63;;;16.52;;
29358;SDS011;16347;53.232;6.556;2023-06-19T08:12:40;28.10;;;14.93;;
29358;SDS011;16347;53.232;6.556;2023-06-19T08:15:09;21.02;;;14.45;;
29358;SDS011;16347;53.232;6.556;2023-06-19T08:17:40;26.33;;;14.75;;
29358;SDS011;16347;53.232;6.556;2023-06-19T08:20:09;29.70;;;14.38;;
29358;SDS011;16347;53.232;6.556;2023-06-19T08:22:39;25.08;;;13.05;;
29358;SDS011;16347;53.232;6.556;2023-06-19T08:25:07;18.52;;;11.40;;
29358;SDS011;16347;53.232;6.556;2023-06-19T08:27:37;18.15;;;11.88;;
29358;SDS011;16347;53.232;6.556;2023-06-19T08:30:06;27.00;;;10.73;;
29358;SDS011;16347;53.232;6.556;2023-06-19T08:32:35;17.65;;;10.43;;
29358;SDS011;16347;53.232;6.556;2023-06-19T08:35:04;43.30;;;11.35;;
29358;SDS011;16347;53.232;6.556;2023-06-19T08:37:33;16.75;;;10.15;;
29358;SDS011;16347;53.232;6.556;2023-06-19T08:40:02;15.68;;;9.27;;
29358;SDS011;16347;53.232;6.556;2023-06-19T08:42:35;17.20;;;8.70;;
29358;SDS011;16347;53.232;6.556;2023-06-19T08:45:03;14.90;;;8.25;;
29358;SDS011;16347;53.232;6.556;2023-06-19T08:47:33;14.40;;;8.30;;
29358;SDS011;16347;53.232;6.556;2023-06-19T08:50:01;12.50;;;8.35;;
29358;SDS011;16347;53.232;6.556;2023-06-19T08:52:30;14.43;;;8.43;;
29358;SDS011;16347;53.232;6.556;2023-06-19T08:55:00;13.07;;;7.45;;
29358;SDS011;16347;53.232;6.556;2023-06-19T08:57:34;16.92;;;9.07;;
29358;SDS011;16347;53.232;6.556;2023-06-19T09:00:03;37.17;;;8.75;;
29358;SDS011;16347;53.232;6.556;2023-06-19T09:02:37;14.93;;;7.15;;
29358;SDS011;16347;53.232;6.556;2023-06-19T09:05:10;12.95;;;6.40;;
29358;SDS011;16347;53.232;6.556;2023-06-19T09:07:40;12.25;;;6.20;;
29358;SDS011;16347;53.232;6.556;2023-06-19T09:10:15;24.33;;;8.52;;
29358;SDS011;16347;53.232;6.556;2023-06-19T09:12:57;9.68;;;6.93;;
29358;SDS011;16347;53.232;6.556;2023-06-19T09:15:29;15.05;;;7.13;;
29358;SDS011;16347;53.232;6.556;2023-06-19T09:20:29;10.93;;;5.75;;
29358;SDS011;16347;53.232;6.556;2023-06-19T09:22:58;12.57;;;6.07;;
29358;SDS011;16347;53.232;6.556;2023-06-19T09:25:27;9.18;;;5.15;;
29358;SDS011;16347;53.232;6.556;2023-06-19T09:27:57;10.15;;;5.50;;
29358;SDS011;16347;53.232;6.556;2023-06-19T09:30:27;13.77;;;5.95;;
29358;SDS011;16347;53.232;6.556;2023-06-19T09:32:55;8.35;;;5.57;;
29358;SDS011;16347;53.232;6.556;2023-06-19T09:35:23;20.75;;;5.93;;
29358;SDS011;16347;53.232;6.556;2023-06-19T09:37:56;9.02;;;6.40;;
29358;SDS011;16347;53.232;6.556;2023-06-19T09:40:25;17.50;;;6.30;;
29358;SDS011;16347;53.232;6.556;2023-06-19T09:42:54;9.90;;;6.55;;
29358;SDS011;16347;53.232;6.556;2023-06-19T09:45:29;11.65;;;6.07;;
29358;SDS011;16347;53.232;6.556;2023-06-19T09:48:00;9.18;;;6.10;;
29358;SDS011;16347;53.232;6.556;2023-06-19T09:50:48;9.35;;;5.97;;
29358;SDS011;16347;53.232;6.556;2023-06-19T09:53:18;13.02;;;6.57;;
29358;SDS011;16347;53.232;6.556;2023-06-19T09:55:47;10.60;;;6.28;;
29358;SDS011;16347;53.232;6.556;2023-06-19T09:58:18;12.63;;;7.50;;
29358;SDS011;16347;53.232;6.556;2023-06-19T10:00:49;10.52;;;7.07;;
29358;SDS011;16347;53.232;6.556;2023-06-19T10:03:18;13.93;;;8.40;;
29358;SDS011;16347;53.232;6.556;2023-06-19T10:05:46;12.48;;;8.63;;
29358;SDS011;16347;53.232;6.556;2023-06-19T10:08:25;13.68;;;8.52;;
29358;SDS011;16347;53.232;6.556;2023-06-19T10:10:54;13.40;;;8.23;;
29358;SDS011;16347;53.232;6.556;2023-06-19T10:13:30;16.35;;;8.38;;
29358;SDS011;16347;53.232;6.556;2023-06-19T10:16:02;14.80;;;8.90;;
29358;SDS011;16347;53.232;6.556;2023-06-19T10:18:31;14.52;;;8.27;;
29358;SDS011;16347;53.232;6.556;2023-06-19T10:21:00;13.15;;;8.38;;
29358;SDS011;16347;53.232;6.556;2023-06-19T10:23:29;15.35;;;9.27;;
29358;SDS011;16347;53.232;6.556;2023-06-19T10:26:05;13.32;;;9.23;;
29358;SDS011;16347;53.232;6.556;2023-06-19T10:28:33;14.35;;;8.55;;
29358;SDS011;16347;53.232;6.556;2023-06-19T10:31:04;12.98;;;9.93;;
29358;SDS011;16347;53.232;6.556;2023-06-19T10:33:34;20.38;;;10.70;;
29358;SDS011;16347;53.232;6.556;2023-06-19T10:41:14;20.70;;;10.27;;
29358;SDS011;16347;53.232;6.556;2023-06-19T10:43:52;18.10;;;10.13;;
29358;SDS011;16347;53.232;6.556;2023-06-19T10:46:23;17.83;;;10.38;;
29358;SDS011;16347;53.232;6.556;2023-06-19T10:48:53;15.45;;;10.82;;
29358;SDS011;16347;53.232;6.556;2023-06-19T10:53:54;21.08;;;10.43;;
29358;SDS011;16347;53.232;6.556;2023-06-19T10:56:23;20.95;;;10.32;;
29358;SDS011;16347;53.232;6.556;2023-06-19T10:58:59;18.02;;;10.18;;
29358;SDS011;16347;53.232;6.556;2023-06-19T11:01:35;18.27;;;10.00;;
29358;SDS011;16347;53.232;6.556;2023-06-19T11:04:05;14.90;;;10.07;;
29358;SDS011;16347;53.232;6.556;2023-06-19T11:06:34;17.20;;;9.60;;
29358;SDS011;16347;53.232;6.556;2023-06-19T11:09:03;19.88;;;11.40;;
29358;SDS011;16347;53.232;6.556;2023-06-19T11:11:35;18.05;;;11.30;;
29358;SDS011;16347;53.232;6.556;2023-06-19T11:14:06;17.38;;;10.40;;
29358;SDS011;16347;53.232;6.556;2023-06-19T11:16:36;22.70;;;10.98;;
29358;SDS011;16347;53.232;6.556;2023-06-19T11:19:08;19.35;;;11.43;;
29358;SDS011;16347;53.232;6.556;2023-06-19T11:21:37;18.35;;;11.05;;
29358;SDS011;16347;53.232;6.556;2023-06-19T11:24:10;18.33;;;11.15;;
29358;SDS011;16347;53.232;6.556;2023-06-19T11:26:39;20.38;;;10.90;;
29358;SDS011;16347;53.232;6.556;2023-06-19T11:29:14;21.23;;;11.90;;
29358;SDS011;16347;53.232;6.556;2023-06-19T11:31:46;16.55;;;10.63;;
29358;SDS011;16347;53.232;6.556;2023-06-19T11:34:15;18.17;;;11.55;;
29358;SDS011;16347;53.232;6.556;2023-06-19T11:36:50;19.60;;;11.02;;
29358;SDS011;16347;53.232;6.556;2023-06-19T11:39:18;15.30;;;9.65;;
29358;SDS011;16347;53.232;6.556;2023-06-19T11:41:46;17.55;;;10.98;;
29358;SDS011;16347;53.232;6.556;2023-06-19T11:44:14;19.80;;;11.02;;
29358;SDS011;16347;53.232;6.556;2023-06-19T11:46:43;26.38;;;11.13;;
29358;SDS011;16347;53.232;6.556;2023-06-19T11:49:13;20.02;;;11.48;;
29358;SDS011;16347;53.232;6.556;2023-06-19T11:51:43;17.20;;;10.77;;
29358;SDS011;16347;53.232;6.556;2023-06-19T11:54:13;23.25;;;11.73;;
29358;SDS011;16347;53.232;6.556;2023-06-19T11:56:42;18.17;;;11.65;;
29358;SDS011;16347;53.232;6.556;2023-06-19T11:59:10;16.63;;;10.80;;
29358;SDS011;16347;53.232;6.556;2023-06-19T12:01:38;24.48;;;10.35;;
29358;SDS011;16347;53.232;6.556;2023-06-19T12:04:06;15.73;;;10.45;;
29358;SDS011;16347;53.232;6.556;2023-06-19T12:06:36;19.73;;;11.52;;
29358;SDS011;16347;53.232;6.556;2023-06-19T12:09:04;20.33;;;11.93;;
29358;SDS011;16347;53.232;6.556;2023-06-19T12:11:32;20.17;;;12.68;;
29358;SDS011;16347;53.232;6.556;2023-06-19T12:14:00;19.30;;;12.43;;
29358;SDS011;16347;53.232;6.556;2023-06-19T12:16:29;20.20;;;12.30;;
29358;SDS011;16347;53.232;6.556;2023-06-19T12:18:57;19.98;;;12.32;;
29358;SDS011;16347;53.232;6.556;2023-06-19T12:21:25;25.88;;;11.75;;
29358;SDS011;16347;53.232;6.556;2023-06-19T12:24:05;18.35;;;11.88;;
29358;SDS011;16347;53.232;6.556;2023-06-19T12:26:34;21.88;;;12.40;;
29358;SDS011;16347;53.232;6.556;2023-06-19T12:29:04;19.27;;;11.23;;
29358;SDS011;16347;53.232;6.556;2023-06-19T12:31:33;17.98;;;12.50;;
29358;SDS011;16347;53.232;6.556;2023-06-19T12:34:02;16.20;;;11.57;;
29358;SDS011;16347;53.232;6.556;2023-06-19T12:36:50;22.40;;;11.95;;
29358;SDS011;16347;53.232;6.556;2023-06-19T12:39:20;16.05;;;10.45;;
29358;SDS011;16347;53.232;6.556;2023-06-19T12:41:48;20.13;;;11.68;;
29358;SDS011;16347;53.232;6.556;2023-06-19T12:44:16;18.40;;;11.15;;
29358;SDS011;16347;53.232;6.556;2023-06-19T12:46:44;20.35;;;11.63;;
29358;SDS011;16347;53.232;6.556;2023-06-19T12:49:12;26.42;;;11.70;;
29358;SDS011;16347;53.232;6.556;2023-06-19T12:51:41;22.80;;;11.15;;
29358;SDS011;16347;53.232;6.556;2023-06-19T12:54:09;20.63;;;11.02;;
29358;SDS011;16347;53.232;6.556;2023-06-19T12:56:38;19.05;;;10.32;;
29358;SDS011;16347;53.232;6.556;2023-06-19T12:59:06;21.48;;;11.57;;
29358;SDS011;16347;53.232;6.556;2023-06-19T13:01:34;18.15;;;11.32;;
29358;SDS011;16347;53.232;6.556;2023-06-19T13:04:03;17.70;;;11.18;;
29358;SDS011;16347;53.232;6.556;2023-06-19T13:06:31;17.90;;;11.15;;
29358;SDS011;16347;53.232;6.556;2023-06-19T13:08:59;20.13;;;10.55;;
29358;SDS011;16347;53.232;6.556;2023-06-19T13:11:31;21.83;;;10.85;;
29358;SDS011;16347;53.232;6.556;2023-06-19T13:14:02;18.63;;;10.52;;
29358;SDS011;16347;53.232;6.556;2023-06-19T13:16:31;18.42;;;10.68;;
29358;SDS011;16347;53.232;6.556;2023-06-19T13:19:12;16.55;;;11.63;;
29358;SDS011;16347;53.232;6.556;2023-06-19T13:21:41;13.90;;;9.45;;
29358;SDS011;16347;53.232;6.556;2023-06-19T13:24:09;14.90;;;9.45;;
29358;SDS011;16347;53.232;6.556;2023-06-19T13:26:38;15.02;;;8.52;;
29358;SDS011;16347;53.232;6.556;2023-06-19T13:29:08;36.03;;;8.88;;
29358;SDS011;16347;53.232;6.556;2023-06-19T13:31:36;10.40;;;6.55;;
29358;SDS011;16347;53.232;6.556;2023-06-19T13:34:05;9.57;;;6.53;;
29358;SDS011;16347;53.232;6.556;2023-06-19T13:36:33;14.95;;;8.20;;
29358;SDS011;16347;53.232;6.556;2023-06-19T13:39:01;17.20;;;7.70;;
29358;SDS011;16347;53.232;6.556;2023-06-19T13:41:29;16.42;;;8.20;;
29358;SDS011;16347;53.232;6.556;2023-06-19T13:43:59;15.52;;;7.70;;
29358;SDS011;16347;53.232;6.556;2023-06-19T13:46:28;10.95;;;7.70;;
29358;SDS011;16347;53.232;6.556;2023-06-19T13:48:58;15.80;;;8.85;;
29358;SDS011;16347;53.232;6.556;2023-06-19T13:51:27;13.20;;;7.65;;
29358;SDS011;16347;53.232;6.556;2023-06-19T13:53:56;13.55;;;6.85;;
29358;SDS011;16347;53.232;6.556;2023-06-19T13:56:24;10.00;;;6.57;;
29358;SDS011;16347;53.232;6.556;2023-06-19T13:58:52;16.42;;;7.35;;
29358;SDS011;16347;53.232;6.556;2023-06-19T14:01:21;10.43;;;6.32;;
29358;SDS011;16347;53.232;6.556;2023-06-19T14:03:52;10.65;;;6.60;;
29358;SDS011;16347;53.232;6.556;2023-06-19T14:06:21;10.55;;;6.47;;
29358;SDS011;16347;53.232;6.556;2023-06-19T14:08:49;10.63;;;6.47;;
29358;SDS011;16347;53.232;6.556;2023-06-19T14:11:17;11.55;;;6.03;;
29358;SDS011;16347;53.232;6.556;2023-06-19T14:13:46;9.25;;;6.00;;
29358;SDS011;16347;53.232;6.556;2023-06-19T14:16:14;14.98;;;6.63;;
29358;SDS011;16347;53.232;6.556;2023-06-19T14:18:42;7.85;;;5.78;;
29358;SDS011;16347;53.232;6.556;2023-06-19T14:21:11;10.82;;;5.72;;
29358;SDS011;16347;53.232;6.556;2023-06-19T14:23:39;13.52;;;6.18;;
29358;SDS011;16347;53.232;6.556;2023-06-19T14:26:09;14.30;;;6.93;;
29358;SDS011;16347;53.232;6.556;2023-06-19T14:28:38;13.10;;;7.28;;
29358;SDS011;16347;53.232;6.556;2023-06-19T14:31:09;10.45;;;6.07;;
29358;SDS011;16347;53.232;6.556;2023-06-19T14:33:37;9.32;;;5.82;;
29358;SDS011;16347;53.232;6.556;2023-06-19T14:36:05;12.00;;;7.35;;
29358;SDS011;16347;53.232;6.556;2023-06-19T14:38:35;12.07;;;8.05;;
29358;SDS011;16347;53.232;6.556;2023-06-19T14:41:03;9.23;;;6.72;;
29358;SDS011;16347;53.232;6.556;2023-06-19T14:43:31;13.80;;;7.97;;
29358;SDS011;16347;53.232;6.556;2023-06-19T14:46:01;12.00;;;6.22;;
29358;SDS011;16347;53.232;6.556;2023-06-19T14:48:31;9.88;;;6.65;;
29358;SDS011;16347;53.232;6.556;2023-06-19T14:51:00;13.95;;;6.78;;
29358;SDS011;16347;53.232;6.556;2023-06-19T14:53:31;13.48;;;7.18;;
29358;SDS011;16347;53.232;6.556;2023-06-19T14:56:00;13.70;;;7.00;;
29358;SDS011;16347;53.232;6.556;2023-06-19T14:58:28;13.95;;;7.60;;
29358;SDS011;16347;53.232;6.556;2023-06-19T15:00:56;14.02;;;6.82;;